createdAt,value
2019-06-07T00:07:35.971Z,88.57
2019-06-07T00:22:36.094Z,89.59
2019-06-07T00:37:36.267Z,89.32
2019-06-07T01:07:41.680Z,88.51
2019-06-07T01:22:41.803Z,87.71
2019-06-07T01:37:43.511Z,88.31
2019-06-07T01:52:43.686Z,88.35
2019-06-07T02:07:43.889Z,86.57
2019-06-07T02:22:44.074Z,87.32
2019-06-07T02:37:44.313Z,89.09
2019-06-07T02:52:44.504Z,89.64
2019-06-07T03:07:45.708Z,89.54
2019-06-07T03:22:45.818Z,90.90
2019-06-07T03:37:46.238Z,91.14
2019-06-07T03:52:47.007Z,91.20
2019-06-07T04:07:47.225Z,89.17
2019-06-07T04:22:47.393Z,89.59
2019-06-07T04:37:47.615Z,88.18
2019-06-07T04:52:48.040Z,84.85
2019-06-07T05:07:48.130Z,84.67
2019-06-07T05:22:48.429Z,79.90
2019-06-07T05:37:48.673Z,78.44
2019-06-07T05:52:48.832Z,75.31
2019-06-07T06:07:50.793Z,73.72
2019-06-07T06:22:51.755Z,67.58
2019-06-07T06:37:53.338Z,63.39
2019-06-07T06:52:54.941Z,59.39
2019-06-07T07:07:55.233Z,51.67
2019-06-07T07:22:57.187Z,49.29
2019-06-07T07:37:59.838Z,46.17
2019-06-07T07:53:00.924Z,42.84
2019-06-07T08:08:04.984Z,41.16
2019-06-07T08:23:06.066Z,39.95
2019-06-07T08:38:27.628Z,34.69
2019-06-07T08:53:12.464Z,38.75
2019-06-07T09:08:29.212Z,36.99
2019-06-07T09:23:18.050Z,39.32
2019-06-07T09:38:25.756Z,36.14
2019-06-07T09:53:23.977Z,39.85
2019-06-07T10:09:42.577Z,39.36
2019-06-07T10:23:29.393Z,37.32
2019-06-07T10:38:29.506Z,37.49
2019-06-07T10:53:29.568Z,37.34
2019-06-07T11:08:29.729Z,38.60
2019-06-07T11:23:29.902Z,41.24
2019-06-07T11:38:30.024Z,42.11
2019-06-07T11:53:30.233Z,39.64
2019-06-07T12:08:30.374Z,39.17
2019-06-07T12:23:30.555Z,37.45
2019-06-07T12:38:30.782Z,35.78
2019-06-07T12:53:30.847Z,34.72
2019-06-07T13:08:31.003Z,33.87
2019-06-07T13:23:31.202Z,34.64
2019-06-07T13:38:31.366Z,34.51
2019-06-07T13:53:31.584Z,33.98
2019-06-07T14:08:31.706Z,33.92
2019-06-07T14:23:45.892Z,34.30
2019-06-07T14:38:37.778Z,33.51
2019-06-07T14:53:38.358Z,33.67
2019-06-07T15:08:39.186Z,33.89
2019-06-07T15:23:39.784Z,34.88
2019-06-07T15:38:40.085Z,34.88
2019-06-07T15:53:44.466Z,36.86
2019-06-07T16:08:45.448Z,36.88
2019-06-07T16:23:45.738Z,37.46
2019-06-07T16:38:45.868Z,39.47
2019-06-07T16:53:46.006Z,41.51
2019-06-07T17:08:46.322Z,43.39
2019-06-07T17:23:47.418Z,45.85
2019-06-07T17:38:48.679Z,48.30
2019-06-07T17:53:49.847Z,50.51
2019-06-07T18:08:49.844Z,50.68
2019-06-07T18:23:50.326Z,52.99
2019-06-07T18:38:50.896Z,54.43
2019-06-07T18:53:51.688Z,56.18
2019-06-07T19:08:55.559Z,58.33
2019-06-07T19:23:57.959Z,59.88
2019-06-07T19:38:58.056Z,60.83
2019-06-07T19:53:59.099Z,62.66
2019-06-07T20:08:59.234Z,64.92
2019-06-07T20:24:00.191Z,65.86
2019-06-07T20:39:06.130Z,68.82
2019-06-07T20:54:07.406Z,71.39
2019-06-07T21:09:08.058Z,73.50
2019-06-07T21:24:08.758Z,74.04
2019-06-07T21:39:10.316Z,75.27
2019-06-07T21:54:13.110Z,76.72
2019-06-07T22:09:15.263Z,77.72
2019-06-07T22:24:15.396Z,77.66
2019-06-07T22:39:16.074Z,77.96
2019-06-07T22:54:16.218Z,79.00
2019-06-07T23:09:17.119Z,79.41
2019-06-07T23:24:19.578Z,80.65
2019-06-07T23:39:22.493Z,82.64
2019-06-07T23:54:22.900Z,85.03
